createdAt,value
2022-10-31T00:01:24.989Z,10.90
2022-10-31T00:11:29.456Z,8.50
2022-10-31T00:21:34.027Z,9.60
2022-10-31T00:31:38.213Z,9.20
2022-10-31T00:41:43.327Z,8.70
2022-10-31T00:51:49.851Z,9.30
2022-10-31T01:01:54.181Z,8.90
2022-10-31T01:11:58.408Z,8.50
2022-10-31T01:22:01.945Z,9.50
2022-10-31T01:32:06.560Z,10.30
2022-10-31T01:42:19.081Z,9.50
2022-10-31T01:52:28.060Z,8.10
2022-10-31T02:02:33.352Z,7.10
2022-10-31T02:12:40.055Z,7.40
2022-10-31T02:23:21.890Z,7.70
2022-10-31T02:33:41.528Z,8.80
2022-10-31T02:53:50.507Z,9.60
2022-10-31T03:04:03.372Z,8.00
2022-10-31T03:14:28.522Z,7.10
2022-10-31T03:24:39.969Z,8.10
2022-10-31T03:34:47.004Z,7.00
2022-10-31T03:45:12.380Z,7.60
2022-10-31T03:55:31.080Z,6.90
2022-10-31T04:05:36.893Z,6.40
2022-10-31T04:15:42.809Z,5.70
2022-10-31T04:25:46.584Z,5.90
2022-10-31T04:35:50.573Z,5.90
2022-10-31T04:45:55.639Z,5.30
2022-10-31T04:56:02.016Z,5.40
2022-10-31T05:06:14.540Z,5.90
2022-10-31T05:16:19.035Z,7.30
2022-10-31T05:26:58.629Z,7.20
2022-10-31T05:37:02.883Z,6.40
2022-10-31T05:47:06.755Z,6.20
2022-10-31T05:57:31.090Z,6.20
2022-10-31T06:07:37.029Z,7.20
2022-10-31T06:17:41.289Z,5.80
2022-10-31T06:27:47.928Z,5.40
2022-10-31T06:37:56.630Z,6.50
2022-10-31T06:48:17.553Z,5.10
2022-10-31T06:58:40.977Z,5.50
2022-10-31T07:08:46.136Z,4.70
2022-10-31T07:18:51.808Z,5.00
2022-10-31T07:28:55.763Z,5.80
2022-10-31T07:39:03.595Z,4.80
2022-10-31T07:49:08.921Z,4.80
2022-10-31T07:59:15.989Z,3.70
2022-10-31T08:09:19.839Z,4.10
2022-10-31T08:19:24.124Z,3.50
2022-10-31T08:29:29.021Z,3.30
2022-10-31T08:39:33.897Z,3.90
2022-10-31T08:49:37.989Z,3.30
2022-10-31T08:59:42.188Z,3.40
2022-10-31T09:10:15.258Z,4.00
2022-10-31T09:20:20.222Z,4.30
2022-10-31T09:30:24.267Z,4.20
2022-10-31T09:40:47.263Z,3.20
2022-10-31T09:50:59.239Z,3.30
2022-10-31T10:01:23.228Z,2.50
2022-10-31T10:11:37.841Z,2.60
2022-10-31T10:22:17.555Z,3.60
2022-10-31T10:32:28.602Z,3.10
2022-10-31T10:42:51.664Z,3.20
2022-10-31T10:53:33.128Z,3.30
2022-10-31T11:03:37.399Z,3.20
2022-10-31T11:13:43.990Z,3.80
2022-10-31T11:23:48.014Z,3.20
2022-10-31T11:33:59.357Z,3.60
2022-10-31T11:44:14.087Z,3.20
2022-10-31T11:54:36.588Z,3.60
2022-10-31T12:04:49.146Z,3.70
2022-10-31T12:15:02.234Z,4.30
2022-10-31T12:25:18.568Z,5.60
2022-10-31T12:35:36.489Z,4.50
2022-10-31T12:46:01.001Z,4.60
2022-10-31T12:56:39.350Z,4.20
2022-10-31T13:06:54.103Z,3.70
2022-10-31T13:17:00.506Z,4.30
2022-10-31T13:27:14.316Z,4.90
2022-10-31T13:37:40.277Z,4.10
2022-10-31T13:47:44.757Z,5.50
2022-10-31T13:57:49.034Z,5.00
2022-10-31T14:07:55.072Z,4.40
2022-10-31T14:18:03.174Z,4.20
2022-10-31T14:28:33.607Z,7.20
2022-10-31T14:39:08.699Z,9.50
2022-10-31T14:49:21.913Z,11.50
2022-10-31T14:59:31.777Z,24.10
2022-10-31T15:09:38.309Z,40.70
2022-10-31T15:19:44.943Z,8.90
2022-10-31T15:29:58.427Z,11.50
2022-10-31T15:40:15.928Z,18.40
2022-10-31T15:50:24.816Z,22.20
2022-10-31T16:00:30.599Z,11.10
2022-10-31T16:10:39.090Z,24.80
2022-10-31T16:20:51.488Z,15.70
2022-10-31T16:30:57.929Z,14.80
2022-10-31T16:41:03.086Z,11.90
2022-10-31T16:51:09.119Z,13.90
2022-10-31T17:01:14.530Z,14.20
2022-10-31T17:11:21.753Z,25.00
2022-10-31T17:21:29.000Z,17.40
2022-10-31T17:31:37.370Z,16.50
2022-10-31T17:41:41.143Z,25.60
2022-10-31T17:51:45.320Z,14.70
2022-10-31T18:01:49.171Z,14.60
2022-10-31T18:11:54.003Z,26.90
2022-10-31T18:21:58.572Z,22.80
2022-10-31T18:32:08.288Z,19.80
2022-10-31T18:42:13.076Z,20.60
2022-10-31T18:52:18.677Z,18.60
2022-10-31T19:02:23.098Z,26.80
2022-10-31T19:12:27.948Z,26.60
2022-10-31T19:22:32.951Z,23.80
2022-10-31T19:32:36.704Z,25.20
2022-10-31T19:42:42.019Z,27.30
2022-10-31T19:52:46.392Z,25.60
2022-10-31T20:02:50.784Z,27.50
2022-10-31T20:12:55.584Z,25.80
2022-10-31T20:23:01.243Z,31.10
2022-10-31T20:33:06.181Z,29.60
2022-10-31T20:43:13.141Z,23.50
2022-10-31T20:53:17.640Z,25.40
2022-10-31T21:03:21.986Z,24.50
2022-10-31T21:13:28.612Z,24.40
2022-10-31T21:23:32.908Z,30.60
2022-10-31T21:33:40.702Z,23.70
2022-10-31T21:43:46.086Z,19.90
2022-10-31T21:54:11.119Z,21.90
2022-10-31T22:04:15.115Z,20.00
2022-10-31T22:14:19.173Z,20.70
2022-10-31T22:24:22.845Z,21.90
2022-10-31T22:34:26.906Z,19.80
2022-10-31T22:44:30.598Z,17.40
2022-10-31T22:54:35.671Z,16.40
2022-10-31T23:04:39.550Z,18.20
2022-10-31T23:14:43.846Z,17.70
2022-10-31T23:24:48.301Z,15.30
2022-10-31T23:34:54.640Z,13.50
2022-10-31T23:44:58.307Z,15.30
2022-10-31T23:55:01.794Z,11.50
